createdAt,value
2018-01-30T00:00:21.282Z,1016.58
2018-01-30T00:01:01.820Z,1016.67
2018-01-30T00:01:42.359Z,1016.69
2018-01-30T00:02:22.906Z,1016.67
2018-01-30T00:03:03.410Z,1016.72
2018-01-30T00:03:44.030Z,1016.77
2018-01-30T00:04:24.609Z,1016.77
2018-01-30T00:05:05.171Z,1016.74
2018-01-30T00:05:46.487Z,1016.82
2018-01-30T00:06:27.027Z,1016.78
2018-01-30T00:07:08.091Z,1016.79
2018-01-30T00:07:48.675Z,1016.79
2018-01-30T00:08:29.170Z,1016.78
2018-01-30T00:09:09.714Z,1016.86
2018-01-30T00:09:50.262Z,1016.86
2018-01-30T00:10:30.826Z,1016.87
2018-01-30T00:11:11.360Z,1016.84
2018-01-30T00:11:51.996Z,1016.83
2018-01-30T00:12:32.499Z,1016.82
2018-01-30T00:13:13.057Z,1016.84
2018-01-30T00:13:53.601Z,1016.8
2018-01-30T00:14:34.179Z,1016.8
2018-01-30T00:15:14.704Z,1016.77
2018-01-30T00:15:55.277Z,1016.74
2018-01-30T00:16:35.863Z,1016.79
2018-01-30T00:17:16.513Z,1016.73
2018-01-30T00:17:57.121Z,1016.77
2018-01-30T00:18:37.595Z,1016.78
2018-01-30T00:19:18.132Z,1016.78
2018-01-30T00:19:59.350Z,1016.75
2018-01-30T00:20:39.891Z,1016.77
2018-01-30T00:21:20.440Z,1016.71
2018-01-30T00:22:00.993Z,1016.8
2018-01-30T00:22:41.490Z,1016.77
2018-01-30T00:23:22.056Z,1016.83
2018-01-30T00:24:02.708Z,1016.81
2018-01-30T00:24:43.268Z,1016.87
2018-01-30T00:25:24.358Z,1016.79
2018-01-30T00:26:04.459Z,1016.81
2018-01-30T00:26:44.990Z,1016.81
2018-01-30T00:27:25.615Z,1016.86
2018-01-30T00:28:06.151Z,1016.83
2018-01-30T00:28:46.698Z,1016.84
2018-01-30T00:29:27.593Z,1016.79
2018-01-30T00:30:08.145Z,1016.83
2018-01-30T00:30:48.682Z,1016.81
2018-01-30T00:31:29.694Z,1016.84
2018-01-30T00:32:10.254Z,1016.81
2018-01-30T00:32:50.816Z,1016.84
2018-01-30T00:33:31.367Z,1016.83
2018-01-30T00:34:11.888Z,1016.83
2018-01-30T00:34:52.513Z,1016.84
2018-01-30T00:35:33.079Z,1016.83
2018-01-30T00:36:13.617Z,1016.74
2018-01-30T00:36:54.195Z,1016.72
2018-01-30T00:37:34.833Z,1016.73
2018-01-30T00:38:15.344Z,1016.74
2018-01-30T00:38:55.849Z,1016.8
2018-01-30T00:39:36.446Z,1016.81
2018-01-30T00:40:16.993Z,1016.78
2018-01-30T00:40:57.564Z,1016.82
2018-01-30T00:41:38.138Z,1016.75
2018-01-30T00:42:18.698Z,1016.76
2018-01-30T00:42:59.252Z,1016.76
2018-01-30T00:43:39.777Z,1016.85
2018-01-30T00:44:20.340Z,1016.81
2018-01-30T00:45:00.895Z,1016.83
2018-01-30T00:45:41.456Z,1016.85
2018-01-30T00:46:22.132Z,1016.89
2018-01-30T00:47:02.834Z,1016.87
2018-01-30T00:47:43.313Z,1016.89
2018-01-30T00:48:23.876Z,1016.91
2018-01-30T00:49:04.430Z,1016.9
2018-01-30T00:49:44.970Z,1016.86
2018-01-30T00:50:25.495Z,1016.85
2018-01-30T00:51:06.056Z,1016.88
2018-01-30T00:51:46.602Z,1016.89
2018-01-30T00:52:27.108Z,1016.86
2018-01-30T00:53:07.628Z,1016.85
2018-01-30T00:53:48.183Z,1016.84
2018-01-30T00:54:28.748Z,1016.86
2018-01-30T00:55:09.301Z,1016.87
2018-01-30T00:55:49.848Z,1016.85
2018-01-30T00:56:30.509Z,1016.82
2018-01-30T00:57:10.993Z,1016.84
2018-01-30T00:57:51.529Z,1016.81
2018-01-30T00:58:32.081Z,1016.76
2018-01-30T00:59:12.634Z,1016.72
2018-01-30T00:59:53.366Z,1016.76
2018-01-30T01:00:33.936Z,1016.74
2018-01-30T01:01:14.453Z,1016.77
2018-01-30T01:01:54.997Z,1016.8
2018-01-30T01:02:35.531Z,1016.76
2018-01-30T01:03:16.068Z,1016.78
2018-01-30T01:03:56.627Z,1016.77
2018-01-30T01:04:37.177Z,1016.81
2018-01-30T01:05:17.721Z,1016.85
2018-01-30T01:05:58.240Z,1016.87
2018-01-30T01:06:38.775Z,1016.86
2018-01-30T01:07:19.301Z,1016.83
2018-01-30T01:07:59.848Z,1016.84
2018-01-30T01:08:40.375Z,1016.88
2018-01-30T01:09:20.938Z,1016.86
2018-01-30T01:10:01.475Z,1016.85
2018-01-30T01:10:42.011Z,1016.88
2018-01-30T01:11:22.568Z,1016.9
2018-01-30T01:12:03.128Z,1016.87
2018-01-30T01:12:43.684Z,1016.88
2018-01-30T01:13:24.230Z,1016.91
2018-01-30T01:14:04.773Z,1016.96
2018-01-30T01:14:45.320Z,1016.97
2018-01-30T01:15:25.893Z,1016.95
2018-01-30T01:16:06.391Z,1016.99
2018-01-30T01:16:46.932Z,1017
2018-01-30T01:17:27.487Z,1017.03
2018-01-30T01:18:08.041Z,1017.05
2018-01-30T01:18:48.573Z,1017.02
2018-01-30T01:19:29.096Z,1017.03
2018-01-30T01:20:09.645Z,1017.02
2018-01-30T01:20:50.212Z,1017.06
2018-01-30T01:21:30.753Z,1017.04
2018-01-30T01:22:11.283Z,1017.01
2018-01-30T01:22:51.850Z,1016.95
2018-01-30T01:23:32.386Z,1016.93
2018-01-30T01:24:12.937Z,1016.89
2018-01-30T01:24:53.466Z,1016.92
2018-01-30T01:25:34.010Z,1016.97
2018-01-30T01:26:14.572Z,1016.9
2018-01-30T01:26:55.137Z,1016.89
2018-01-30T01:27:35.691Z,1016.92
2018-01-30T01:28:16.255Z,1016.95
2018-01-30T01:28:56.810Z,1016.92
2018-01-30T01:29:37.403Z,1016.93
2018-01-30T01:30:17.933Z,1016.91
2018-01-30T01:30:58.475Z,1016.91
2018-01-30T01:31:39.018Z,1016.94
2018-01-30T01:32:19.542Z,1016.9
2018-01-30T01:33:00.054Z,1016.9
2018-01-30T01:33:40.625Z,1016.86
2018-01-30T01:34:21.169Z,1016.89
2018-01-30T01:35:01.719Z,1016.96
2018-01-30T01:35:42.229Z,1016.96
2018-01-30T01:36:22.758Z,1016.96
2018-01-30T01:37:03.915Z,1017
2018-01-30T01:37:44.485Z,1017.01
2018-01-30T01:38:25.034Z,1017.01
2018-01-30T01:39:05.584Z,1017.03
2018-01-30T01:39:46.186Z,1017.03
2018-01-30T01:40:26.680Z,1016.97
2018-01-30T01:41:07.225Z,1016.98
2018-01-30T01:41:47.778Z,1017
2018-01-30T01:42:28.314Z,1016.99
2018-01-30T01:43:08.852Z,1017.04
2018-01-30T01:43:49.397Z,1017.02
2018-01-30T01:44:29.924Z,1017.05
2018-01-30T01:45:10.438Z,1017.01
2018-01-30T01:45:50.993Z,1017.03
2018-01-30T01:46:31.540Z,1017.02
2018-01-30T01:47:12.109Z,1017.03
2018-01-30T01:47:52.673Z,1016.97
2018-01-30T01:48:33.217Z,1017.03
2018-01-30T01:49:13.749Z,1017.02
2018-01-30T01:49:54.310Z,1017.02
2018-01-30T01:50:34.869Z,1016.9
2018-01-30T01:51:15.401Z,1016.99
2018-01-30T01:51:55.933Z,1016.98
2018-01-30T01:52:36.491Z,1016.98
2018-01-30T01:53:17.040Z,1017
2018-01-30T01:53:57.587Z,1016.96
2018-01-30T01:54:38.155Z,1016.95
2018-01-30T01:55:18.715Z,1017
2018-01-30T01:55:59.298Z,1016.96
2018-01-30T01:56:39.813Z,1017.02
2018-01-30T01:57:20.376Z,1016.99
2018-01-30T01:58:00.920Z,1016.98
2018-01-30T01:58:41.479Z,1016.99
2018-01-30T01:59:22.031Z,1016.94
2018-01-30T02:00:02.568Z,1016.93
2018-01-30T02:00:43.120Z,1016.89
2018-01-30T02:01:23.681Z,1016.95
2018-01-30T02:02:04.235Z,1016.95
2018-01-30T02:02:44.762Z,1016.95
2018-01-30T02:03:25.317Z,1016.95
2018-01-30T02:04:05.853Z,1017.01
2018-01-30T02:04:46.414Z,1016.94
2018-01-30T02:05:26.978Z,1016.99
2018-01-30T02:06:07.511Z,1016.96
2018-01-30T02:06:48.055Z,1017.04
2018-01-30T02:07:28.595Z,1016.97
2018-01-30T02:08:09.146Z,1017.02
2018-01-30T02:08:49.702Z,1016.98
2018-01-30T02:09:30.224Z,1017.02
2018-01-30T02:10:10.770Z,1017.09
2018-01-30T02:10:51.416Z,1017.08
2018-01-30T02:11:31.905Z,1017.12
2018-01-30T02:12:12.433Z,1017.08
2018-01-30T02:12:52.984Z,1017.1
2018-01-30T02:13:33.518Z,1017.02
2018-01-30T02:14:14.047Z,1017.04
2018-01-30T02:14:54.602Z,1017.01
2018-01-30T02:15:35.165Z,1016.98
2018-01-30T02:16:15.726Z,1017.02
2018-01-30T02:16:56.292Z,1017.08
2018-01-30T02:17:36.869Z,1016.97
2018-01-30T02:18:17.418Z,1017
2018-01-30T02:18:57.946Z,1016.98
2018-01-30T02:19:38.517Z,1016.99
2018-01-30T02:20:19.086Z,1016.94
2018-01-30T02:20:59.640Z,1016.93
2018-01-30T02:21:40.207Z,1016.95
2018-01-30T02:22:20.762Z,1016.99
2018-01-30T02:23:01.334Z,1016.96
2018-01-30T02:23:41.889Z,1016.96
2018-01-30T02:24:22.442Z,1017
2018-01-30T02:25:02.978Z,1016.94
2018-01-30T02:25:43.550Z,1016.88
2018-01-30T02:26:24.097Z,1016.85
2018-01-30T02:27:04.656Z,1016.86
2018-01-30T02:27:45.196Z,1016.89
2018-01-30T02:28:25.767Z,1016.9
2018-01-30T02:29:06.315Z,1016.9
2018-01-30T02:29:46.864Z,1016.92
2018-01-30T02:30:27.407Z,1016.92
2018-01-30T02:31:07.959Z,1016.93
2018-01-30T02:31:48.498Z,1016.95
2018-01-30T02:32:29.043Z,1016.92
2018-01-30T02:33:09.577Z,1016.94
2018-01-30T02:33:50.140Z,1016.93
2018-01-30T02:34:30.686Z,1016.93
2018-01-30T02:35:11.205Z,1016.93
2018-01-30T02:35:51.733Z,1016.9
2018-01-30T02:36:32.281Z,1016.94
2018-01-30T02:37:12.806Z,1016.91
2018-01-30T02:37:53.348Z,1016.93
2018-01-30T02:38:33.905Z,1016.92
2018-01-30T02:39:14.443Z,1016.97
2018-01-30T02:39:54.967Z,1016.95
2018-01-30T02:40:35.506Z,1016.97
2018-01-30T02:41:16.038Z,1016.97
2018-01-30T02:41:56.573Z,1016.95
2018-01-30T02:42:37.129Z,1016.92
2018-01-30T02:43:17.680Z,1016.87
2018-01-30T02:43:58.189Z,1016.85
2018-01-30T02:44:38.748Z,1016.9
2018-01-30T02:45:19.358Z,1016.86
2018-01-30T02:45:59.907Z,1016.89
2018-01-30T02:46:40.448Z,1016.9
2018-01-30T02:47:20.974Z,1016.86
2018-01-30T02:48:01.542Z,1016.87
2018-01-30T02:48:42.086Z,1016.83
2018-01-30T02:49:22.609Z,1016.84
2018-01-30T02:50:03.143Z,1016.83
2018-01-30T02:50:43.681Z,1016.85
2018-01-30T02:51:24.251Z,1016.8
2018-01-30T02:52:04.754Z,1016.8
2018-01-30T02:52:45.343Z,1016.83
2018-01-30T02:53:25.866Z,1016.81
2018-01-30T02:54:06.414Z,1016.82
2018-01-30T02:54:46.928Z,1016.8
2018-01-30T02:55:27.483Z,1016.83
2018-01-30T02:56:08.032Z,1016.81
2018-01-30T02:56:48.518Z,1016.77
2018-01-30T02:57:29.073Z,1016.79
2018-01-30T02:58:09.623Z,1016.78
2018-01-30T02:58:50.183Z,1016.79
2018-01-30T02:59:30.746Z,1016.77
2018-01-30T03:00:11.307Z,1016.76
2018-01-30T03:00:51.851Z,1016.8
2018-01-30T03:01:32.375Z,1016.77
2018-01-30T03:02:12.909Z,1016.77
2018-01-30T03:02:53.463Z,1016.73
2018-01-30T03:03:34.008Z,1016.76
2018-01-30T03:04:14.542Z,1016.76
2018-01-30T03:04:55.111Z,1016.76
2018-01-30T03:05:35.612Z,1016.79
2018-01-30T03:06:16.173Z,1016.78
2018-01-30T03:06:56.729Z,1016.85
2018-01-30T03:07:37.288Z,1016.81
2018-01-30T03:08:17.788Z,1016.79
2018-01-30T03:08:58.328Z,1016.81
2018-01-30T03:09:38.878Z,1016.79
2018-01-30T03:10:19.421Z,1016.82
2018-01-30T03:10:59.968Z,1016.79
2018-01-30T03:11:40.533Z,1016.79
2018-01-30T03:12:21.111Z,1016.81
2018-01-30T03:13:01.664Z,1016.82
2018-01-30T03:13:42.226Z,1016.78
2018-01-30T03:14:22.777Z,1016.81
2018-01-30T03:15:03.334Z,1016.8
2018-01-30T03:15:43.869Z,1016.78
2018-01-30T03:16:24.416Z,1016.75
2018-01-30T03:17:04.965Z,1016.78
2018-01-30T03:17:45.537Z,1016.76
2018-01-30T03:18:26.079Z,1016.78
2018-01-30T03:19:06.624Z,1016.75
2018-01-30T03:19:47.172Z,1016.75
2018-01-30T03:20:27.751Z,1016.71
2018-01-30T03:21:08.316Z,1016.73
2018-01-30T03:21:48.861Z,1016.72
2018-01-30T03:22:29.422Z,1016.73
2018-01-30T03:23:09.976Z,1016.74
2018-01-30T03:23:50.518Z,1016.77
2018-01-30T03:24:31.066Z,1016.75
2018-01-30T03:25:11.605Z,1016.76
2018-01-30T03:25:52.130Z,1016.77
2018-01-30T03:26:32.700Z,1016.78
2018-01-30T03:27:13.256Z,1016.82
2018-01-30T03:27:53.814Z,1016.74
2018-01-30T03:28:34.378Z,1016.74
2018-01-30T03:29:14.942Z,1016.77
2018-01-30T03:29:55.506Z,1016.76
2018-01-30T03:30:36.067Z,1016.82
2018-01-30T03:31:16.638Z,1016.77
2018-01-30T03:31:57.206Z,1016.82
2018-01-30T03:32:37.755Z,1016.81
2018-01-30T03:33:18.316Z,1016.79
2018-01-30T03:33:58.877Z,1016.79
2018-01-30T03:34:39.446Z,1016.83
2018-01-30T03:35:20.024Z,1016.83
2018-01-30T03:36:00.562Z,1016.75
2018-01-30T03:36:41.110Z,1016.77
2018-01-30T03:37:21.654Z,1016.72
2018-01-30T03:38:02.217Z,1016.73
2018-01-30T03:38:42.771Z,1016.71
2018-01-30T03:39:23.341Z,1016.75
2018-01-30T03:40:03.894Z,1016.75
2018-01-30T03:40:44.471Z,1016.76
2018-01-30T03:41:25.027Z,1016.73
2018-01-30T03:42:05.585Z,1016.7
2018-01-30T03:42:46.140Z,1016.77
2018-01-30T03:43:26.715Z,1016.74
2018-01-30T03:44:07.266Z,1016.76
2018-01-30T03:44:47.837Z,1016.73
2018-01-30T03:45:28.383Z,1016.74
2018-01-30T03:46:08.953Z,1016.82
2018-01-30T03:46:49.515Z,1016.72
2018-01-30T03:47:30.076Z,1016.7
2018-01-30T03:48:10.629Z,1016.71
2018-01-30T03:48:51.192Z,1016.75
2018-01-30T03:49:31.782Z,1016.71
2018-01-30T03:50:12.335Z,1016.74
2018-01-30T03:50:52.883Z,1016.77
2018-01-30T03:51:33.438Z,1016.76
2018-01-30T03:52:13.980Z,1016.75
2018-01-30T03:52:54.522Z,1016.76
2018-01-30T03:53:35.044Z,1016.75
2018-01-30T03:54:15.612Z,1016.73
2018-01-30T03:54:56.227Z,1016.79
2018-01-30T03:55:36.746Z,1016.83
2018-01-30T03:56:17.315Z,1016.82
2018-01-30T03:56:57.848Z,1016.88
2018-01-30T03:57:38.417Z,1016.83
2018-01-30T03:58:18.965Z,1016.83
2018-01-30T03:58:59.505Z,1016.85
2018-01-30T03:59:40.054Z,1016.81
2018-01-30T04:00:20.605Z,1016.85
2018-01-30T04:01:01.192Z,1016.83
2018-01-30T04:01:41.745Z,1016.9
2018-01-30T04:02:22.318Z,1016.9
2018-01-30T04:03:02.860Z,1016.91
2018-01-30T04:03:43.393Z,1016.88
2018-01-30T04:04:23.926Z,1016.84
2018-01-30T04:05:04.442Z,1016.87
2018-01-30T04:05:44.984Z,1016.87
2018-01-30T04:06:25.549Z,1016.86
2018-01-30T04:07:06.049Z,1016.86
2018-01-30T04:07:46.597Z,1016.85
2018-01-30T04:08:27.150Z,1016.83
2018-01-30T04:09:07.714Z,1016.78
2018-01-30T04:09:48.236Z,1016.84
2018-01-30T04:10:28.757Z,1016.85
2018-01-30T04:11:09.294Z,1016.83
2018-01-30T04:11:49.858Z,1016.81
2018-01-30T04:12:30.435Z,1016.84
2018-01-30T04:13:10.983Z,1016.82
2018-01-30T04:13:51.541Z,1016.85
2018-01-30T04:14:32.115Z,1016.83
2018-01-30T04:15:12.680Z,1016.81
2018-01-30T04:15:53.233Z,1016.86
2018-01-30T04:16:33.806Z,1016.89
2018-01-30T04:17:14.343Z,1016.84
2018-01-30T04:17:54.911Z,1016.87
2018-01-30T04:18:35.478Z,1016.88
2018-01-30T04:19:16.028Z,1016.88
2018-01-30T04:19:56.592Z,1016.88
2018-01-30T04:20:37.155Z,1016.9
2018-01-30T04:21:17.727Z,1016.89
2018-01-30T04:21:58.279Z,1016.89
2018-01-30T04:22:38.833Z,1016.86
2018-01-30T04:23:19.411Z,1016.83
2018-01-30T04:23:59.946Z,1016.84
2018-01-30T04:24:40.487Z,1016.9
2018-01-30T04:25:21.041Z,1016.89
2018-01-30T04:26:01.590Z,1016.93
2018-01-30T04:26:42.093Z,1016.87
2018-01-30T04:27:22.623Z,1016.91
2018-01-30T04:28:03.144Z,1016.88
2018-01-30T04:28:43.687Z,1016.91
2018-01-30T04:29:24.221Z,1016.88
2018-01-30T04:30:04.753Z,1016.97
2018-01-30T04:30:45.301Z,1016.93
2018-01-30T04:31:25.874Z,1016.98
2018-01-30T04:32:06.400Z,1016.97
2018-01-30T04:32:46.953Z,1016.94
2018-01-30T04:33:27.502Z,1016.96
2018-01-30T04:34:08.045Z,1016.92
2018-01-30T04:34:48.603Z,1016.88
2018-01-30T04:35:29.163Z,1016.88
2018-01-30T04:36:09.709Z,1016.91
2018-01-30T04:36:50.251Z,1016.86
2018-01-30T04:37:30.783Z,1016.89
2018-01-30T04:38:11.318Z,1016.84
2018-01-30T04:38:51.890Z,1016.87
2018-01-30T04:39:32.455Z,1016.9
2018-01-30T04:40:13.095Z,1016.81
2018-01-30T04:40:53.672Z,1016.86
2018-01-30T04:41:34.236Z,1016.88
2018-01-30T04:42:14.758Z,1016.92
2018-01-30T04:42:55.304Z,1016.92
2018-01-30T04:43:35.821Z,1016.92
2018-01-30T04:44:16.344Z,1016.97
2018-01-30T04:44:56.895Z,1016.98
2018-01-30T04:45:37.459Z,1016.99
2018-01-30T04:46:18.022Z,1017
2018-01-30T04:46:58.584Z,1017
2018-01-30T04:47:39.138Z,1017.03
2018-01-30T04:48:19.697Z,1017.01
2018-01-30T04:49:00.233Z,1017.03
2018-01-30T04:49:40.819Z,1017.02
2018-01-30T04:50:21.400Z,1017.04
2018-01-30T04:51:01.949Z,1017.04
2018-01-30T04:51:42.508Z,1017.06
2018-01-30T04:52:23.068Z,1017.11
2018-01-30T04:53:03.633Z,1017.13
2018-01-30T04:53:44.202Z,1017.09
2018-01-30T04:54:24.753Z,1017.09
2018-01-30T04:55:05.304Z,1017.12
2018-01-30T04:55:45.825Z,1017.09
2018-01-30T04:56:26.393Z,1017.16
2018-01-30T04:57:06.918Z,1017.12
2018-01-30T04:57:47.442Z,1017.1
2018-01-30T04:58:27.970Z,1017.08
2018-01-30T04:59:08.519Z,1017.12
2018-01-30T04:59:49.087Z,1017.09
2018-01-30T05:00:29.630Z,1017.11
2018-01-30T05:01:10.205Z,1017.13
2018-01-30T05:01:50.775Z,1017.11
2018-01-30T05:02:31.292Z,1017.14
2018-01-30T05:03:11.842Z,1017.12
2018-01-30T05:03:52.360Z,1017.06
2018-01-30T05:04:32.950Z,1017.06
2018-01-30T05:05:13.470Z,1017.1
2018-01-30T05:05:54.013Z,1017.08
2018-01-30T05:06:34.562Z,1017.12
2018-01-30T05:07:15.155Z,1017.1
2018-01-30T05:07:55.630Z,1017.14
2018-01-30T05:08:36.172Z,1017.15
2018-01-30T05:09:16.672Z,1017.15
2018-01-30T05:09:57.188Z,1017.18
2018-01-30T05:10:37.731Z,1017.21
2018-01-30T05:11:18.291Z,1017.21
2018-01-30T05:11:58.834Z,1017.22
2018-01-30T05:12:39.387Z,1017.28
2018-01-30T05:13:19.907Z,1017.29
2018-01-30T05:14:00.459Z,1017.25
2018-01-30T05:14:40.960Z,1017.25
2018-01-30T05:15:21.488Z,1017.27
2018-01-30T05:16:02.006Z,1017.29
2018-01-30T05:16:42.553Z,1017.28
2018-01-30T05:17:23.123Z,1017.31
2018-01-30T05:18:03.625Z,1017.28
2018-01-30T05:18:44.164Z,1017.25
2018-01-30T05:19:24.722Z,1017.32
2018-01-30T05:20:05.245Z,1017.29
2018-01-30T05:20:45.765Z,1017.29
2018-01-30T05:21:26.327Z,1017.32
2018-01-30T05:22:06.868Z,1017.31
2018-01-30T05:22:47.393Z,1017.32
2018-01-30T05:23:27.930Z,1017.31
2018-01-30T05:24:08.508Z,1017.28
2018-01-30T05:24:49.078Z,1017.33
2018-01-30T05:25:29.574Z,1017.39
2018-01-30T05:26:10.102Z,1017.33
2018-01-30T05:26:50.653Z,1017.31
2018-01-30T05:27:31.176Z,1017.36
2018-01-30T05:28:11.740Z,1017.37
2018-01-30T05:28:52.305Z,1017.33
2018-01-30T05:29:32.855Z,1017.3
2018-01-30T05:30:13.378Z,1017.32
2018-01-30T05:30:53.944Z,1017.38
2018-01-30T05:31:34.511Z,1017.33
2018-01-30T05:32:15.081Z,1017.36
2018-01-30T05:32:55.627Z,1017.4
2018-01-30T05:33:36.166Z,1017.38
2018-01-30T05:34:16.733Z,1017.4
2018-01-30T05:34:57.291Z,1017.35
2018-01-30T05:35:37.846Z,1017.34
2018-01-30T05:36:18.390Z,1017.38
2018-01-30T05:36:58.919Z,1017.37
2018-01-30T05:37:39.464Z,1017.34
2018-01-30T05:38:20.036Z,1017.38
2018-01-30T05:39:00.562Z,1017.39
2018-01-30T05:39:41.096Z,1017.38
2018-01-30T05:40:21.657Z,1017.4
2018-01-30T05:41:02.220Z,1017.4
2018-01-30T05:41:42.760Z,1017.38
2018-01-30T05:42:23.336Z,1017.4
2018-01-30T05:43:03.872Z,1017.39
2018-01-30T05:43:44.427Z,1017.4
2018-01-30T05:44:25.100Z,1017.4
2018-01-30T05:45:05.575Z,1017.43
2018-01-30T05:45:46.140Z,1017.42
2018-01-30T05:46:26.692Z,1017.41
2018-01-30T05:47:07.265Z,1017.47
2018-01-30T05:47:47.814Z,1017.46
2018-01-30T05:48:28.381Z,1017.48
2018-01-30T05:49:08.939Z,1017.51
2018-01-30T05:49:49.527Z,1017.47
2018-01-30T05:50:30.063Z,1017.5
2018-01-30T05:51:10.638Z,1017.48
2018-01-30T05:51:51.243Z,1017.53
2018-01-30T05:52:31.793Z,1017.51
2018-01-30T05:53:12.338Z,1017.56
2018-01-30T05:53:52.888Z,1017.54
2018-01-30T05:54:33.448Z,1017.52
2018-01-30T05:55:14.004Z,1017.53
2018-01-30T05:55:54.546Z,1017.55
2018-01-30T05:56:35.096Z,1017.54
2018-01-30T05:57:15.634Z,1017.52
2018-01-30T05:57:56.189Z,1017.55
2018-01-30T05:58:36.747Z,1017.56
2018-01-30T05:59:17.353Z,1017.53
2018-01-30T05:59:57.892Z,1017.53
2018-01-30T06:00:38.450Z,1017.54
2018-01-30T06:01:18.993Z,1017.56
2018-01-30T06:01:59.547Z,1017.58
2018-01-30T06:02:40.155Z,1017.56
2018-01-30T06:03:20.729Z,1017.57
2018-01-30T06:04:01.270Z,1017.61
2018-01-30T06:04:41.835Z,1017.59
2018-01-30T06:05:22.387Z,1017.62
2018-01-30T06:06:02.917Z,1017.63
2018-01-30T06:06:43.782Z,1017.6
2018-01-30T06:07:24.324Z,1017.59
2018-01-30T06:08:04.885Z,1017.62
2018-01-30T06:08:45.426Z,1017.58
2018-01-30T06:09:25.944Z,1017.63
2018-01-30T06:10:06.477Z,1017.61
2018-01-30T06:10:47.013Z,1017.61
2018-01-30T06:11:27.571Z,1017.66
2018-01-30T06:12:08.116Z,1017.65
2018-01-30T06:12:48.628Z,1017.63
2018-01-30T06:13:30.481Z,1017.59
2018-01-30T06:14:11.005Z,1017.61
2018-01-30T06:14:51.524Z,1017.57
2018-01-30T06:15:32.078Z,1017.65
2018-01-30T06:16:12.658Z,1017.65
2018-01-30T06:16:53.203Z,1017.63
2018-01-30T06:17:33.748Z,1017.63
2018-01-30T06:18:14.324Z,1017.59
2018-01-30T06:18:54.906Z,1017.63
2018-01-30T06:19:35.425Z,1017.64
2018-01-30T06:20:15.978Z,1017.61
2018-01-30T06:20:56.558Z,1017.65
2018-01-30T06:21:37.079Z,1017.64
2018-01-30T06:22:17.645Z,1017.68
2018-01-30T06:22:58.176Z,1017.63
2018-01-30T06:23:38.788Z,1017.62
2018-01-30T06:24:19.342Z,1017.67
2018-01-30T06:25:01.719Z,1017.68
2018-01-30T06:25:42.352Z,1017.62
2018-01-30T06:26:22.889Z,1017.62
2018-01-30T06:27:03.416Z,1017.67
2018-01-30T06:27:43.955Z,1017.64
2018-01-30T06:28:24.543Z,1017.66
2018-01-30T06:29:05.114Z,1017.68
2018-01-30T06:29:45.678Z,1017.69
2018-01-30T06:30:26.244Z,1017.68
2018-01-30T06:31:06.885Z,1017.65
2018-01-30T06:31:47.467Z,1017.67
2018-01-30T06:32:27.954Z,1017.69
2018-01-30T06:33:08.475Z,1017.67
2018-01-30T06:33:49.101Z,1017.72
2018-01-30T06:34:29.683Z,1017.73
2018-01-30T06:35:10.240Z,1017.78
2018-01-30T06:35:50.930Z,1017.75
2018-01-30T06:36:31.822Z,1017.73
2018-01-30T06:37:12.456Z,1017.76
2018-01-30T06:37:53.024Z,1017.71
2018-01-30T06:38:33.605Z,1017.72
2018-01-30T06:39:14.151Z,1017.75
2018-01-30T06:39:55.075Z,1017.74
2018-01-30T06:40:35.681Z,1017.74
2018-01-30T06:41:16.326Z,1017.73
2018-01-30T06:41:56.873Z,1017.69
2018-01-30T06:42:37.412Z,1017.68
2018-01-30T06:43:18.081Z,1017.69
2018-01-30T06:43:58.653Z,1017.71
2018-01-30T06:44:39.287Z,1017.67
2018-01-30T06:45:20.131Z,1017.66
2018-01-30T06:46:00.681Z,1017.69
2018-01-30T06:46:41.459Z,1017.73
2018-01-30T06:47:22.113Z,1017.77
2018-01-30T06:48:02.728Z,1017.76
2018-01-30T06:48:43.221Z,1017.72
2018-01-30T06:49:23.817Z,1017.76
2018-01-30T06:50:04.381Z,1017.77
2018-01-30T06:50:44.942Z,1017.74
2018-01-30T06:51:25.480Z,1017.76
2018-01-30T06:52:06.025Z,1017.77
2018-01-30T06:52:46.658Z,1017.78
2018-01-30T06:53:27.195Z,1017.79
2018-01-30T06:54:07.832Z,1017.8
2018-01-30T06:54:48.296Z,1017.87
2018-01-30T06:55:28.823Z,1017.76
2018-01-30T06:56:09.412Z,1017.84
2018-01-30T06:56:49.942Z,1017.88
2018-01-30T06:57:30.496Z,1017.89
2018-01-30T06:58:11.068Z,1017.93
2018-01-30T06:58:51.676Z,1017.96
2018-01-30T06:59:32.152Z,1017.98
2018-01-30T07:00:12.665Z,1017.99
2018-01-30T07:00:53.178Z,1017.98
2018-01-30T07:01:33.727Z,1018.03
2018-01-30T07:02:14.272Z,1018.02
2018-01-30T07:02:54.815Z,1018.08
2018-01-30T07:03:35.318Z,1018.05
2018-01-30T07:04:15.871Z,1017.99
2018-01-30T07:04:56.409Z,1018.06
2018-01-30T07:05:36.933Z,1018.04
2018-01-30T07:06:17.564Z,1018.02
2018-01-30T07:06:58.192Z,1018.01
2018-01-30T07:07:38.746Z,1018.02
2018-01-30T07:08:20.160Z,1018.01
2018-01-30T07:09:00.816Z,1018.04
2018-01-30T07:09:41.338Z,1018.04
2018-01-30T07:10:22.055Z,1018.04
2018-01-30T07:11:02.646Z,1018.07
2018-01-30T07:11:43.703Z,1018.04
2018-01-30T07:12:24.256Z,1018.01
2018-01-30T07:13:05.036Z,1018.02
2018-01-30T07:13:45.665Z,1018.07
2018-01-30T07:14:26.456Z,1018.05
2018-01-30T07:15:07.371Z,1018.02
2018-01-30T07:15:48.016Z,1018.01
2018-01-30T07:16:28.566Z,1018.04
2018-01-30T07:17:09.080Z,1017.96
2018-01-30T07:17:49.633Z,1018.03
2018-01-30T07:18:30.428Z,1017.98
2018-01-30T07:19:11.750Z,1018.02
2018-01-30T07:19:52.315Z,1018.06
2018-01-30T07:20:33.081Z,1018.03
2018-01-30T07:21:13.570Z,1018.08
2018-01-30T07:21:54.120Z,1018.06
2018-01-30T07:22:34.687Z,1018.06
2018-01-30T07:23:15.254Z,1018.05
2018-01-30T07:23:55.929Z,1018.1
2018-01-30T07:24:36.504Z,1018.01
2018-01-30T07:25:17.079Z,1017.99
2018-01-30T07:25:57.653Z,1017.97
2018-01-30T07:26:38.263Z,1017.99
2018-01-30T07:27:18.863Z,1018.01
2018-01-30T07:27:59.387Z,1018.02
2018-01-30T07:28:39.954Z,1017.98
2018-01-30T07:29:20.463Z,1018
2018-01-30T07:30:00.997Z,1017.96
2018-01-30T07:30:41.580Z,1017.99
2018-01-30T07:31:22.225Z,1018
2018-01-30T07:32:02.858Z,1018.02
2018-01-30T07:32:43.349Z,1017.99
2018-01-30T07:33:23.903Z,1017.94
2018-01-30T07:34:04.469Z,1018.02
2018-01-30T07:34:45.022Z,1017.97
2018-01-30T07:35:25.564Z,1017.95
2018-01-30T07:36:06.127Z,1017.94
2018-01-30T07:36:46.694Z,1017.98
2018-01-30T07:37:27.202Z,1018
2018-01-30T07:38:07.762Z,1017.96
2018-01-30T07:38:48.340Z,1017.98
2018-01-30T07:39:28.883Z,1017.97
2018-01-30T07:40:09.391Z,1018.02
2018-01-30T07:40:49.951Z,1017.99
2018-01-30T07:41:30.530Z,1017.99
2018-01-30T07:42:11.015Z,1018
2018-01-30T07:42:51.546Z,1017.98
2018-01-30T07:43:32.131Z,1017.94
2018-01-30T07:44:12.696Z,1017.97
2018-01-30T07:44:53.211Z,1018
2018-01-30T07:45:33.745Z,1017.99
2018-01-30T07:46:14.349Z,1017.99
2018-01-30T07:46:54.823Z,1018.05
2018-01-30T07:47:35.349Z,1017.99
2018-01-30T07:48:15.891Z,1018.02
2018-01-30T07:48:56.448Z,1018.04
2018-01-30T07:49:36.960Z,1018.06
2018-01-30T07:50:17.486Z,1018.07
2018-01-30T07:50:58.094Z,1018.08
2018-01-30T07:51:38.674Z,1018.1
2018-01-30T07:52:19.190Z,1018.12
2018-01-30T07:52:59.816Z,1018.09
2018-01-30T07:53:40.327Z,1018.1
2018-01-30T07:54:20.878Z,1018.18
2018-01-30T07:55:01.434Z,1018.19
2018-01-30T07:55:41.987Z,1018.21
2018-01-30T07:56:22.517Z,1018.24
2018-01-30T07:57:03.127Z,1018.21
2018-01-30T07:57:43.646Z,1018.19
2018-01-30T07:58:24.197Z,1018.22
2018-01-30T07:59:04.752Z,1018.23
2018-01-30T07:59:45.334Z,1018.2
2018-01-30T08:00:25.855Z,1018.22
2018-01-30T08:01:06.423Z,1018.22
2018-01-30T08:01:46.959Z,1018.24
2018-01-30T08:02:27.510Z,1018.23
2018-01-30T08:03:08.067Z,1018.22
2018-01-30T08:03:48.701Z,1018.24
2018-01-30T08:04:29.224Z,1018.19
2018-01-30T08:05:09.769Z,1018.21
2018-01-30T08:05:50.319Z,1018.17
2018-01-30T08:06:30.831Z,1018.12
2018-01-30T08:07:11.362Z,1018.17
2018-01-30T08:07:51.931Z,1018.15
2018-01-30T08:08:32.451Z,1018.14
2018-01-30T08:09:13.011Z,1018.16
2018-01-30T08:09:53.539Z,1018.18
2018-01-30T08:10:34.123Z,1018.11
2018-01-30T08:11:14.660Z,1018.14
2018-01-30T08:11:55.224Z,1018.07
2018-01-30T08:12:35.730Z,1018.11